createdAt,value
2018-12-24T00:00:53.803Z,301.43
2018-12-24T00:01:53.797Z,301.76
2018-12-24T00:02:53.814Z,301.30
2018-12-24T00:03:53.775Z,301.10
2018-12-24T00:04:53.770Z,301.44
2018-12-24T00:05:53.751Z,300.81
2018-12-24T00:06:53.739Z,301.50
2018-12-24T00:07:53.741Z,301.14
2018-12-24T00:08:53.728Z,301.00
2018-12-24T00:09:53.723Z,301.56
2018-12-24T00:10:53.689Z,301.02
2018-12-24T00:11:53.692Z,301.28
2018-12-24T00:12:53.676Z,300.98
2018-12-24T00:13:53.680Z,301.81
2018-12-24T00:14:53.678Z,301.70
2018-12-24T00:15:53.639Z,302.07
2018-12-24T00:16:53.643Z,301.19
2018-12-24T00:17:53.622Z,301.64
2018-12-24T00:18:53.613Z,300.51
2018-12-24T00:19:53.611Z,300.69
2018-12-24T00:20:53.592Z,300.16
2018-12-24T00:21:53.569Z,300.54
2018-12-24T00:22:53.563Z,300.50
2018-12-24T00:23:53.556Z,300.63
2018-12-24T00:24:53.590Z,300.61
2018-12-24T00:25:53.569Z,300.62
2018-12-24T00:26:53.525Z,300.18
2018-12-24T00:28:01.106Z,300.68
2018-12-24T00:28:53.497Z,300.79
2018-12-24T00:29:53.507Z,301.11
2018-12-24T00:30:53.497Z,300.66
2018-12-24T00:31:53.485Z,301.30
2018-12-24T00:32:53.477Z,300.48
2018-12-24T00:33:53.441Z,300.46
2018-12-24T00:34:53.462Z,300.95
2018-12-24T00:35:53.422Z,300.12
2018-12-24T00:36:53.409Z,299.83
2018-12-24T00:37:53.409Z,300.21
2018-12-24T00:38:53.423Z,299.45
2018-12-24T00:39:53.387Z,299.75
2018-12-24T00:40:53.385Z,299.54
2018-12-24T00:41:53.368Z,300.15
2018-12-24T00:42:53.358Z,299.72
2018-12-24T00:43:53.332Z,299.59
2018-12-24T00:44:53.335Z,299.67
2018-12-24T00:45:53.331Z,299.98
2018-12-24T00:46:53.308Z,299.46
2018-12-24T00:47:53.298Z,299.97
2018-12-24T00:48:53.289Z,299.73
2018-12-24T00:49:53.269Z,300.66
2018-12-24T00:50:53.309Z,299.94
2018-12-24T00:51:53.253Z,300.49
2018-12-24T00:52:53.241Z,300.20
2018-12-24T00:53:53.292Z,300.04
2018-12-24T00:54:53.232Z,299.92
2018-12-24T00:55:53.226Z,300.57
2018-12-24T00:56:53.193Z,300.43
2018-12-24T00:57:53.187Z,300.38
2018-12-24T00:58:53.194Z,300.45
2018-12-24T00:59:53.176Z,300.69
2018-12-24T01:00:53.199Z,300.93
2018-12-24T01:01:53.150Z,300.92
2018-12-24T01:02:53.132Z,300.96
2018-12-24T01:03:53.128Z,300.80
2018-12-24T01:04:53.111Z,300.22
2018-12-24T01:05:53.118Z,300.67
2018-12-24T01:06:53.110Z,300.86
2018-12-24T01:07:53.087Z,301.25
2018-12-24T01:08:53.806Z,301.15
2018-12-24T01:09:53.054Z,300.93
2018-12-24T01:10:53.072Z,301.03
2018-12-24T01:11:53.048Z,300.24
2018-12-24T01:12:53.026Z,300.79
2018-12-24T01:13:53.031Z,301.08
2018-12-24T01:14:53.003Z,300.96
2018-12-24T01:15:53.021Z,301.06
2018-12-24T01:16:52.984Z,300.81
2018-12-24T01:17:52.973Z,300.62
2018-12-24T01:18:52.965Z,300.52
2018-12-24T01:19:52.967Z,300.96
2018-12-24T01:20:52.966Z,301.27
2018-12-24T01:21:52.924Z,300.81
2018-12-24T01:22:52.943Z,301.44
2018-12-24T01:23:52.922Z,301.03
2018-12-24T01:24:52.905Z,301.20
2018-12-24T01:25:52.906Z,300.95
2018-12-24T01:26:52.880Z,300.74
2018-12-24T01:27:52.872Z,300.86
2018-12-24T01:28:52.853Z,300.75
2018-12-24T01:29:52.865Z,300.99
2018-12-24T01:30:52.873Z,300.85
2018-12-24T01:31:52.841Z,301.15
2018-12-24T01:32:52.817Z,300.93
2018-12-24T01:33:52.798Z,300.55
2018-12-24T01:34:52.792Z,300.55
2018-12-24T01:35:52.793Z,300.56
2018-12-24T01:36:52.774Z,300.95
2018-12-24T01:37:52.749Z,300.66
2018-12-24T01:38:52.749Z,300.57
2018-12-24T01:39:52.745Z,301.28
2018-12-24T01:40:52.761Z,300.91
2018-12-24T01:41:52.714Z,301.41
2018-12-24T01:42:52.709Z,301.51
2018-12-24T01:43:52.700Z,300.81
2018-12-24T01:44:52.679Z,301.26
2018-12-24T01:45:52.705Z,301.03
2018-12-24T01:46:52.673Z,301.33
2018-12-24T01:47:52.663Z,301.12
2018-12-24T01:48:52.640Z,300.92
2018-12-24T01:49:52.634Z,301.45
2018-12-24T01:50:52.632Z,300.65
2018-12-24T01:51:52.600Z,301.11
2018-12-24T01:52:52.601Z,301.27
2018-12-24T01:53:52.579Z,301.18
2018-12-24T01:54:52.579Z,301.07
2018-12-24T01:55:52.583Z,300.92
2018-12-24T01:56:52.555Z,300.79
2018-12-24T01:57:52.549Z,301.17
2018-12-24T01:58:52.537Z,301.39
2018-12-24T01:59:52.525Z,300.98
2018-12-24T02:00:52.531Z,300.87
2018-12-24T02:01:52.522Z,301.18
2018-12-24T02:02:52.497Z,300.95
2018-12-24T02:03:52.479Z,300.64
2018-12-24T02:04:52.462Z,300.84
2018-12-24T02:05:52.468Z,301.17
2018-12-24T02:06:52.448Z,300.64
2018-12-24T02:07:52.428Z,300.83
2018-12-24T02:08:52.449Z,300.49
2018-12-24T02:09:52.417Z,301.22
2018-12-24T02:10:52.448Z,300.70
2018-12-24T02:11:52.416Z,300.53
2018-12-24T02:12:52.387Z,300.30
2018-12-24T02:13:52.370Z,301.08
2018-12-24T02:14:52.392Z,300.68
2018-12-24T02:15:52.382Z,301.25
2018-12-24T02:16:52.345Z,301.09
2018-12-24T02:17:52.342Z,300.79
2018-12-24T02:18:52.344Z,301.14
2018-12-24T02:19:52.324Z,300.72
2018-12-24T02:20:52.357Z,300.77
2018-12-24T02:21:52.287Z,300.83
2018-12-24T02:22:52.299Z,300.58
2018-12-24T02:23:52.269Z,300.30
2018-12-24T02:24:52.283Z,301.04
2018-12-24T02:25:52.262Z,301.22
2018-12-24T02:26:52.231Z,301.01
2018-12-24T02:27:52.224Z,300.57
2018-12-24T02:28:52.213Z,301.52
2018-12-24T02:29:52.209Z,300.33
2018-12-24T02:30:52.222Z,301.51
2018-12-24T02:31:52.200Z,300.50
2018-12-24T02:32:52.164Z,300.93
2018-12-24T02:33:52.161Z,300.81
2018-12-24T02:34:52.149Z,300.96
2018-12-24T02:35:52.154Z,301.21
2018-12-24T02:36:52.133Z,300.87
2018-12-24T02:37:52.121Z,300.83
2018-12-24T02:38:52.104Z,301.56
2018-12-24T02:39:52.089Z,300.74
2018-12-24T02:40:52.116Z,301.13
2018-12-24T02:41:52.080Z,300.87
2018-12-24T02:42:52.769Z,300.78
2018-12-24T02:43:52.067Z,300.89
2018-12-24T02:44:52.051Z,300.95
2018-12-24T02:45:52.043Z,301.23
2018-12-24T02:46:52.082Z,300.84
2018-12-24T02:47:52.059Z,300.43
2018-12-24T02:48:52.025Z,300.94
2018-12-24T02:49:52.032Z,300.67
2018-12-24T02:50:52.044Z,300.01
2018-12-24T02:51:51.999Z,300.71
2018-12-24T02:52:51.957Z,300.35
2018-12-24T02:53:51.954Z,300.29
2018-12-24T02:54:51.953Z,300.93
2018-12-24T02:55:52.800Z,300.62
2018-12-24T02:56:51.965Z,301.11
2018-12-24T02:57:51.920Z,300.84
2018-12-24T02:58:51.897Z,301.00
2018-12-24T02:59:51.903Z,300.45
2018-12-24T03:00:51.887Z,300.42
2018-12-24T03:01:51.889Z,300.26
2018-12-24T03:02:51.854Z,300.42
2018-12-24T03:03:51.838Z,300.47
2018-12-24T03:04:51.830Z,300.12
2018-12-24T03:05:51.821Z,300.73
2018-12-24T03:06:51.818Z,301.03
2018-12-24T03:07:51.793Z,300.66
2018-12-24T03:08:51.796Z,300.91
2018-12-24T03:09:51.777Z,301.03
2018-12-24T03:10:51.764Z,300.57
2018-12-24T03:11:51.769Z,300.66
2018-12-24T03:12:51.752Z,300.62
2018-12-24T03:13:51.728Z,300.34
2018-12-24T03:14:51.734Z,301.24
2018-12-24T03:15:51.710Z,300.47
2018-12-24T03:16:51.729Z,301.75
2018-12-24T03:17:51.691Z,300.95
2018-12-24T03:18:51.675Z,301.29
2018-12-24T03:19:51.682Z,300.94
2018-12-24T03:20:51.682Z,300.56
2018-12-24T03:21:51.660Z,300.29
2018-12-24T03:22:51.636Z,301.09
2018-12-24T03:23:51.636Z,300.98
2018-12-24T03:24:51.618Z,300.72
2018-12-24T03:25:51.599Z,300.42
2018-12-24T03:26:51.629Z,301.00
2018-12-24T03:27:51.590Z,301.00
2018-12-24T03:28:51.587Z,300.88
2018-12-24T03:29:51.578Z,300.85
2018-12-24T03:30:51.555Z,300.35
2018-12-24T03:31:51.561Z,301.10
2018-12-24T03:32:51.565Z,300.87
2018-12-24T03:33:51.531Z,300.95
2018-12-24T03:34:51.506Z,301.25
2018-12-24T03:35:51.504Z,300.53
2018-12-24T03:36:51.517Z,301.02
2018-12-24T03:37:51.518Z,301.02
2018-12-24T03:38:51.494Z,300.59
2018-12-24T03:39:51.466Z,300.90
2018-12-24T03:40:51.455Z,300.64
2018-12-24T03:41:51.456Z,301.22
2018-12-24T03:42:51.463Z,301.11
2018-12-24T03:43:51.429Z,300.99
2018-12-24T03:44:51.401Z,300.98
2018-12-24T03:45:51.408Z,301.02
2018-12-24T03:46:51.409Z,300.97
2018-12-24T03:47:51.385Z,300.92
2018-12-24T03:48:51.365Z,301.43
2018-12-24T03:49:51.354Z,301.77
2018-12-24T03:50:51.346Z,300.73
2018-12-24T03:51:51.355Z,301.02
2018-12-24T03:52:51.327Z,301.43
2018-12-24T03:53:51.301Z,301.30
2018-12-24T03:54:51.306Z,301.10
2018-12-24T03:55:51.302Z,300.98
2018-12-24T03:56:51.303Z,300.66
2018-12-24T03:57:51.285Z,301.64
2018-12-24T03:58:51.263Z,300.91
2018-12-24T03:59:51.264Z,300.73
2018-12-24T04:00:51.234Z,301.10
2018-12-24T04:01:51.236Z,300.97
2018-12-24T04:02:51.213Z,301.04
2018-12-24T04:03:51.211Z,300.85
2018-12-24T04:04:51.198Z,301.39
2018-12-24T04:05:51.191Z,301.05
2018-12-24T04:06:51.185Z,300.70
2018-12-24T04:07:51.184Z,300.64
2018-12-24T04:08:51.158Z,300.83
2018-12-24T04:09:51.140Z,300.94
2018-12-24T04:10:51.143Z,301.15
2018-12-24T04:11:51.157Z,300.33
2018-12-24T04:12:51.117Z,300.11
2018-12-24T04:13:51.096Z,300.39
2018-12-24T04:14:51.095Z,299.93
2018-12-24T04:15:51.075Z,300.14
2018-12-24T04:16:51.138Z,301.09
2018-12-24T04:17:51.060Z,300.59
2018-12-24T04:18:51.064Z,300.06
2018-12-24T04:19:51.052Z,300.43
2018-12-24T04:20:51.030Z,301.01
2018-12-24T04:21:58.122Z,300.47
2018-12-24T04:22:51.024Z,300.40
2018-12-24T04:23:50.995Z,300.25
2018-12-24T04:24:50.979Z,299.78
2018-12-24T04:25:50.974Z,300.08
2018-12-24T04:26:50.981Z,300.25
2018-12-24T04:27:50.961Z,300.01
2018-12-24T04:28:50.956Z,300.43
2018-12-24T04:29:50.922Z,300.19
2018-12-24T04:30:50.920Z,299.93
2018-12-24T04:31:50.927Z,299.78
2018-12-24T04:32:50.900Z,300.35
2018-12-24T04:33:50.887Z,300.41
2018-12-24T04:34:51.011Z,299.82
2018-12-24T04:35:50.868Z,300.24
2018-12-24T04:36:51.342Z,300.18
2018-12-24T04:37:50.856Z,300.26
2018-12-24T04:38:50.848Z,300.53
2018-12-24T04:39:50.841Z,300.10
2018-12-24T04:40:50.855Z,300.31
2018-12-24T04:41:50.816Z,300.77
2018-12-24T04:42:50.797Z,300.67
2018-12-24T04:43:50.785Z,300.83
2018-12-24T04:44:50.770Z,300.61
2018-12-24T04:45:50.763Z,300.28
2018-12-24T04:46:50.784Z,300.86
2018-12-24T04:47:50.740Z,300.40
2018-12-24T04:48:57.797Z,300.42
2018-12-24T04:49:50.724Z,300.73
2018-12-24T04:50:50.734Z,300.32
2018-12-24T04:51:50.703Z,300.67
2018-12-24T04:52:50.753Z,300.54
2018-12-24T04:53:50.667Z,300.80
2018-12-24T04:54:50.674Z,300.95
2018-12-24T04:55:50.658Z,300.51
2018-12-24T04:56:50.640Z,301.01
2018-12-24T04:57:50.646Z,301.03
2018-12-24T04:58:50.626Z,300.67
2018-12-24T04:59:50.605Z,300.88
2018-12-24T05:00:50.607Z,300.62
2018-12-24T05:01:50.594Z,300.61
2018-12-24T05:02:50.605Z,300.75
2018-12-24T05:03:50.565Z,300.74
2018-12-24T05:04:50.589Z,300.58
2018-12-24T05:05:50.554Z,300.77
2018-12-24T05:06:50.528Z,301.12
2018-12-24T05:07:50.536Z,300.75
2018-12-24T05:08:50.512Z,300.94
2018-12-24T05:09:50.569Z,301.27
2018-12-24T05:10:50.502Z,300.90
2018-12-24T05:11:50.494Z,300.54
2018-12-24T05:12:50.491Z,301.11
2018-12-24T05:13:50.473Z,300.76
2018-12-24T05:14:50.477Z,300.65
2018-12-24T05:15:50.447Z,300.69
2018-12-24T05:16:50.429Z,301.32
2018-12-24T05:17:50.435Z,301.85
2018-12-24T05:18:50.420Z,300.72
2018-12-24T05:19:50.399Z,301.15
2018-12-24T05:20:50.398Z,300.83
2018-12-24T05:21:50.369Z,300.69
2018-12-24T05:22:50.443Z,300.56
2018-12-24T05:23:50.352Z,301.15
2018-12-24T05:24:50.343Z,301.17
2018-12-24T05:25:50.340Z,301.35
2018-12-24T05:26:50.314Z,300.57
2018-12-24T05:27:50.322Z,301.05
2018-12-24T05:28:58.388Z,300.93
2018-12-24T05:29:50.290Z,301.35
2018-12-24T05:30:50.289Z,300.81
2018-12-24T05:31:50.276Z,301.33
2018-12-24T05:32:57.348Z,301.44
2018-12-24T05:33:50.240Z,301.68
2018-12-24T05:34:50.238Z,301.14
2018-12-24T05:35:50.883Z,301.15
2018-12-24T05:36:50.211Z,301.09
2018-12-24T05:37:50.225Z,301.03
2018-12-24T05:38:50.186Z,301.09
2018-12-24T05:39:50.189Z,300.94
2018-12-24T05:40:50.181Z,300.93
2018-12-24T05:41:50.160Z,301.59
2018-12-24T05:42:50.186Z,301.40
2018-12-24T05:43:50.147Z,301.04
2018-12-24T05:44:50.829Z,301.21
2018-12-24T05:45:50.126Z,301.38
2018-12-24T05:46:50.118Z,301.15
2018-12-24T05:47:50.112Z,300.81
2018-12-24T05:48:50.092Z,301.67
2018-12-24T05:49:50.078Z,300.90
2018-12-24T05:50:50.073Z,300.20
2018-12-24T05:51:50.054Z,300.81
2018-12-24T05:52:50.056Z,301.02
2018-12-24T05:53:50.039Z,300.47
2018-12-24T05:54:50.027Z,300.58
2018-12-24T05:55:50.014Z,300.55
2018-12-24T05:56:50.000Z,300.32
2018-12-24T05:57:50.025Z,300.29
2018-12-24T05:58:49.979Z,300.51
2018-12-24T05:59:49.961Z,301.22
2018-12-24T06:00:49.963Z,300.52
2018-12-24T06:01:49.953Z,300.44
2018-12-24T06:02:49.962Z,300.45
2018-12-24T06:03:49.922Z,300.82
2018-12-24T06:04:49.915Z,300.40
2018-12-24T06:05:49.904Z,300.80
2018-12-24T06:06:49.920Z,300.65
2018-12-24T06:07:49.888Z,300.54
2018-12-24T06:08:49.884Z,300.46
2018-12-24T06:09:49.866Z,299.97
2018-12-24T06:10:49.853Z,300.45
2018-12-24T06:11:49.878Z,299.77
2018-12-24T06:12:49.851Z,300.14
2018-12-24T06:13:57.761Z,300.50
2018-12-24T06:14:50.802Z,300.36
2018-12-24T06:15:49.803Z,300.35
2018-12-24T06:16:49.793Z,300.09
2018-12-24T06:17:49.798Z,301.84
2018-12-24T06:18:49.771Z,300.86
2018-12-24T06:19:49.760Z,300.55
2018-12-24T06:20:49.764Z,300.36
2018-12-24T06:21:49.733Z,300.80
2018-12-24T06:22:49.735Z,300.61
2018-12-24T06:23:49.714Z,300.27
2018-12-24T06:24:49.740Z,300.89
2018-12-24T06:25:49.695Z,301.15
2018-12-24T06:26:49.701Z,301.18
2018-12-24T06:27:49.681Z,300.83
2018-12-24T06:28:49.666Z,300.54
2018-12-24T06:29:49.652Z,300.73
2018-12-24T06:30:49.633Z,300.45
2018-12-24T06:31:49.635Z,301.14
2018-12-24T06:32:49.638Z,300.83
2018-12-24T06:33:49.610Z,300.82
2018-12-24T06:34:49.593Z,301.15
2018-12-24T06:35:49.578Z,300.92
2018-12-24T06:36:49.565Z,301.03
2018-12-24T06:37:49.579Z,301.18
2018-12-24T06:38:49.560Z,301.00
2018-12-24T06:39:49.551Z,300.92
2018-12-24T06:40:49.548Z,300.95
2018-12-24T06:41:49.520Z,300.94
2018-12-24T06:42:49.540Z,301.08
2018-12-24T06:43:49.494Z,301.30
2018-12-24T06:44:49.491Z,300.76
2018-12-24T06:45:49.485Z,300.60
2018-12-24T06:46:49.475Z,300.58
2018-12-24T06:47:49.497Z,300.46
2018-12-24T06:48:49.445Z,300.89
2018-12-24T06:49:49.435Z,300.54
2018-12-24T06:50:49.432Z,300.88
2018-12-24T06:51:49.468Z,300.45
2018-12-24T06:52:49.432Z,301.92
2018-12-24T06:53:49.386Z,301.41
2018-12-24T06:54:49.390Z,300.66
2018-12-24T06:55:49.371Z,300.57
2018-12-24T06:56:49.367Z,301.16
2018-12-24T06:57:49.367Z,300.85
2018-12-24T06:58:49.367Z,300.28
2018-12-24T06:59:49.329Z,301.24
2018-12-24T07:00:49.320Z,300.95
2018-12-24T07:01:49.313Z,300.31
2018-12-24T07:02:49.310Z,300.93
2018-12-24T07:03:49.304Z,300.77
2018-12-24T07:04:49.294Z,300.39
2018-12-24T07:05:49.269Z,300.24
2018-12-24T07:06:49.255Z,300.13
2018-12-24T07:07:49.256Z,300.63
2018-12-24T07:08:49.250Z,300.59
2018-12-24T07:09:49.232Z,300.77
2018-12-24T07:10:49.205Z,301.02
2018-12-24T07:11:49.205Z,300.89
2018-12-24T07:12:49.204Z,300.34
2018-12-24T07:13:49.199Z,300.14
2018-12-24T07:14:49.189Z,301.03
2018-12-24T07:15:49.190Z,300.35
2018-12-24T07:16:49.168Z,300.43
2018-12-24T07:17:49.137Z,300.40
2018-12-24T07:18:49.154Z,300.42
2018-12-24T07:19:49.124Z,299.96
2018-12-24T07:20:49.122Z,300.24
2018-12-24T07:21:49.130Z,300.60
2018-12-24T07:22:49.084Z,300.65
2018-12-24T07:23:49.087Z,300.72
2018-12-24T07:24:49.063Z,300.81
2018-12-24T07:25:49.059Z,300.80
2018-12-24T07:26:49.067Z,300.88
2018-12-24T07:27:49.044Z,301.00
2018-12-24T07:28:49.044Z,300.93
2018-12-24T07:29:49.014Z,300.82
2018-12-24T07:30:49.003Z,301.11
2018-12-24T07:31:49.000Z,300.83
2018-12-24T07:32:48.991Z,301.04
2018-12-24T07:33:49.007Z,300.60
2018-12-24T07:34:48.954Z,300.90
2018-12-24T07:35:48.947Z,300.56
2018-12-24T07:36:48.945Z,301.57
2018-12-24T07:37:48.945Z,301.30
2018-12-24T07:38:49.915Z,300.93
2018-12-24T07:39:48.905Z,300.91
2018-12-24T07:40:48.889Z,300.95
2018-12-24T07:41:48.879Z,301.24
2018-12-24T07:42:48.885Z,301.09
2018-12-24T07:43:48.887Z,301.40
2018-12-24T07:44:48.869Z,300.33
2018-12-24T07:45:48.895Z,300.60
2018-12-24T07:46:48.834Z,301.32
2018-12-24T07:47:48.819Z,301.58
2018-12-24T07:48:48.826Z,301.42
2018-12-24T07:49:48.801Z,300.68
2018-12-24T07:50:48.807Z,301.17
2018-12-24T07:51:48.781Z,300.49
2018-12-24T07:52:48.771Z,301.12
2018-12-24T07:53:48.774Z,301.36
2018-12-24T07:54:48.752Z,300.42
2018-12-24T07:55:48.742Z,301.18
2018-12-24T07:56:48.739Z,300.48
2018-12-24T07:57:48.716Z,300.78
2018-12-24T07:58:48.766Z,299.84
2018-12-24T07:59:48.689Z,300.41
2018-12-24T08:00:48.691Z,300.46
2018-12-24T08:01:48.677Z,300.15
2018-12-24T08:02:48.675Z,300.97
2018-12-24T08:03:48.686Z,300.35
2018-12-24T08:04:48.639Z,300.63
2018-12-24T08:05:48.624Z,300.28
2018-12-24T08:06:48.630Z,300.47
2018-12-24T08:07:56.666Z,300.69
2018-12-24T08:08:48.618Z,301.12
2018-12-24T08:09:48.624Z,300.31
2018-12-24T08:10:48.582Z,300.81
2018-12-24T08:11:48.564Z,300.25
2018-12-24T08:12:48.550Z,301.05
2018-12-24T08:13:48.561Z,300.83
2018-12-24T08:14:48.531Z,300.37
2018-12-24T08:15:48.519Z,300.56
2018-12-24T08:16:48.523Z,300.15
2018-12-24T08:17:48.506Z,300.52
2018-12-24T08:18:48.504Z,300.43
2018-12-24T08:19:48.482Z,300.80
2018-12-24T08:20:48.472Z,301.27
2018-12-24T08:21:48.451Z,300.47
2018-12-24T08:22:48.443Z,301.03
2018-12-24T08:23:48.460Z,301.15
2018-12-24T08:24:48.421Z,300.47
2018-12-24T08:25:48.420Z,300.55
2018-12-24T08:26:48.397Z,300.04
2018-12-24T08:27:48.391Z,300.28
2018-12-24T08:28:48.400Z,300.67
2018-12-24T08:29:48.383Z,300.92
2018-12-24T08:30:48.368Z,300.40
2018-12-24T08:31:48.371Z,300.44
2018-12-24T08:32:48.347Z,300.52
2018-12-24T08:33:48.363Z,301.54
2018-12-24T08:34:48.318Z,301.46
2018-12-24T08:35:48.340Z,301.18
2018-12-24T08:36:48.305Z,300.37
2018-12-24T08:37:48.308Z,300.32
2018-12-24T08:38:48.306Z,300.58
2018-12-24T08:39:48.265Z,300.23
2018-12-24T08:40:48.275Z,300.34
2018-12-24T08:41:48.254Z,300.36
2018-12-24T08:42:48.248Z,300.11
2018-12-24T08:43:48.307Z,300.67
2018-12-24T08:44:48.249Z,300.99
2018-12-24T08:45:48.230Z,301.15
2018-12-24T08:46:48.208Z,300.87
2018-12-24T08:47:48.192Z,301.61
2018-12-24T08:48:48.204Z,300.70
2018-12-24T08:49:48.180Z,301.41
2018-12-24T08:50:48.159Z,300.76
2018-12-24T08:51:48.153Z,300.98
2018-12-24T08:52:48.176Z,301.50
2018-12-24T08:53:48.158Z,301.19
2018-12-24T08:54:48.130Z,301.48
2018-12-24T08:55:48.126Z,300.49
2018-12-24T08:56:48.096Z,301.15
2018-12-24T08:57:48.077Z,300.73
2018-12-24T08:58:48.099Z,301.50
2018-12-24T08:59:48.083Z,300.68
2018-12-24T09:00:48.059Z,301.06
2018-12-24T09:01:48.060Z,300.72
2018-12-24T09:02:55.970Z,301.12
2018-12-24T09:03:48.011Z,300.71
2018-12-24T09:04:48.031Z,301.96
2018-12-24T09:05:48.015Z,300.96
2018-12-24T09:06:47.998Z,301.37
2018-12-24T09:07:48.000Z,300.61
2018-12-24T09:08:47.969Z,301.28
2018-12-24T09:09:47.960Z,301.10
2018-12-24T09:10:47.953Z,300.79
2018-12-24T09:11:47.937Z,301.14
2018-12-24T09:12:47.942Z,301.32
2018-12-24T09:13:48.197Z,301.24
2018-12-24T09:14:50.341Z,301.43
2018-12-24T09:15:47.891Z,301.29
2018-12-24T09:16:47.979Z,301.55
2018-12-24T09:17:47.968Z,300.53
2018-12-24T09:18:47.932Z,300.79
2018-12-24T09:19:47.869Z,300.87
2018-12-24T09:20:52.602Z,301.25
2018-12-24T09:21:48.857Z,301.12
2018-12-24T09:22:47.858Z,301.45
2018-12-24T09:23:47.815Z,301.32
2018-12-24T09:24:47.825Z,301.09
2018-12-24T09:25:47.898Z,300.79
2018-12-24T09:26:47.782Z,301.15
2018-12-24T09:27:47.827Z,300.84
2018-12-24T09:28:49.394Z,300.58
2018-12-24T09:29:47.985Z,301.33
2018-12-24T09:30:47.749Z,301.14
2018-12-24T09:31:47.773Z,300.90
2018-12-24T09:32:47.731Z,301.04
2018-12-24T09:33:47.712Z,301.33
2018-12-24T09:34:47.749Z,301.20
2018-12-24T09:35:47.683Z,301.57
2018-12-24T09:36:47.689Z,301.32
2018-12-24T09:37:47.667Z,301.34
2018-12-24T09:38:47.660Z,301.52
2018-12-24T09:39:47.682Z,301.38
2018-12-24T09:40:47.662Z,301.44
2018-12-24T09:41:47.629Z,301.19
2018-12-24T09:42:48.451Z,300.85
2018-12-24T09:43:47.615Z,301.27
2018-12-24T09:44:47.609Z,301.38
2018-12-24T09:45:47.582Z,301.23
2018-12-24T09:46:47.587Z,301.49
2018-12-24T09:47:47.560Z,301.52
2018-12-24T09:48:47.542Z,301.68
2018-12-24T09:49:47.555Z,301.58
2018-12-24T09:50:47.526Z,301.75
2018-12-24T09:51:47.527Z,301.87
2018-12-24T09:52:47.511Z,301.32
2018-12-24T09:53:47.492Z,301.08
2018-12-24T09:54:47.503Z,301.21
2018-12-24T09:55:47.477Z,301.88
2018-12-24T09:56:47.483Z,302.20
2018-12-24T09:57:47.464Z,301.34
2018-12-24T09:58:47.447Z,301.74
2018-12-24T09:59:47.464Z,301.71
2018-12-24T10:00:47.420Z,302.31
2018-12-24T10:01:47.435Z,301.34
2018-12-24T10:02:47.402Z,301.00
2018-12-24T10:03:47.405Z,301.69
2018-12-24T10:04:47.384Z,301.03
2018-12-24T10:05:47.361Z,301.43
2018-12-24T10:06:47.352Z,301.82
2018-12-24T10:07:47.365Z,302.17
2018-12-24T10:08:47.352Z,301.64
2018-12-24T10:09:47.355Z,301.81
2018-12-24T10:10:47.307Z,301.44
2018-12-24T10:11:47.310Z,301.45
2018-12-24T10:12:47.306Z,301.90
2018-12-24T10:13:47.279Z,301.34
2018-12-24T10:14:47.295Z,301.16
2018-12-24T10:15:47.264Z,301.72
2018-12-24T10:16:47.267Z,300.98
2018-12-24T10:17:54.321Z,301.69
2018-12-24T10:18:47.227Z,301.67
2018-12-24T10:19:47.214Z,302.02
2018-12-24T10:20:47.217Z,302.67
2018-12-24T10:21:47.180Z,302.59
2018-12-24T10:22:47.187Z,302.33
2018-12-24T10:23:47.181Z,302.03
2018-12-24T10:24:47.178Z,302.06
2018-12-24T10:25:47.154Z,302.44
2018-12-24T10:26:47.134Z,302.14
2018-12-24T10:27:47.153Z,302.20
2018-12-24T10:28:47.116Z,301.60
2018-12-24T10:29:47.118Z,302.04
2018-12-24T10:30:47.113Z,302.47
2018-12-24T10:31:47.074Z,302.12
2018-12-24T10:32:47.069Z,302.05
2018-12-24T10:33:47.071Z,302.28
2018-12-24T10:34:47.064Z,302.21
2018-12-24T10:35:47.040Z,301.98
2018-12-24T10:36:47.020Z,302.05
2018-12-24T10:37:47.122Z,301.93
2018-12-24T10:38:47.010Z,301.20
2018-12-24T10:39:47.005Z,301.63
2018-12-24T10:40:47.015Z,301.71
2018-12-24T10:41:47.067Z,301.54
2018-12-24T10:42:47.035Z,301.59
2018-12-24T10:43:47.020Z,301.43
2018-12-24T10:44:47.033Z,301.28
2018-12-24T10:45:47.512Z,300.91
2018-12-24T10:46:46.923Z,301.43
2018-12-24T10:47:46.905Z,301.06
2018-12-24T10:48:46.926Z,301.17
2018-12-24T10:49:46.918Z,301.94
2018-12-24T10:50:46.883Z,301.26
2018-12-24T10:51:47.916Z,300.35
2018-12-24T10:52:46.898Z,300.70
2018-12-24T10:53:46.852Z,300.71
2018-12-24T10:54:46.872Z,301.17
2018-12-24T10:55:46.845Z,301.78
2018-12-24T10:56:46.943Z,301.19
2018-12-24T10:57:47.487Z,301.63
2018-12-24T10:58:46.891Z,301.36
2018-12-24T10:59:46.818Z,301.77
2018-12-24T11:00:46.784Z,301.89
2018-12-24T11:01:46.770Z,301.56
2018-12-24T11:02:46.746Z,302.10
2018-12-24T11:03:46.773Z,301.68
2018-12-24T11:04:46.764Z,301.58
2018-12-24T11:05:47.019Z,301.66
2018-12-24T11:06:46.834Z,302.21
2018-12-24T11:07:48.535Z,302.01
2018-12-24T11:08:47.689Z,301.92
2018-12-24T11:09:47.361Z,302.31
2018-12-24T11:10:46.845Z,301.97
2018-12-24T11:11:46.815Z,301.45
2018-12-24T11:12:47.525Z,302.51
2018-12-24T11:13:46.668Z,301.95
2018-12-24T11:14:46.738Z,301.98
2018-12-24T11:15:46.735Z,302.21
2018-12-24T11:16:48.443Z,301.63
2018-12-24T11:17:46.606Z,301.90
2018-12-24T11:18:46.586Z,302.52
2018-12-24T11:19:46.576Z,301.98
2018-12-24T11:20:47.035Z,301.87
2018-12-24T11:21:46.570Z,302.14
2018-12-24T11:22:46.607Z,302.66
2018-12-24T11:23:46.867Z,302.35
2018-12-24T11:24:46.524Z,301.92
2018-12-24T11:25:46.537Z,301.89
2018-12-24T11:26:46.513Z,301.59
2018-12-24T11:27:46.524Z,301.72
2018-12-24T11:28:46.564Z,301.75
2018-12-24T11:29:47.461Z,301.08
2018-12-24T11:30:46.478Z,301.32
2018-12-24T11:31:46.450Z,301.71
2018-12-24T11:32:46.995Z,301.73
2018-12-24T11:33:46.460Z,301.54
2018-12-24T11:34:46.462Z,301.65
2018-12-24T11:35:46.473Z,301.51
2018-12-24T11:36:46.457Z,300.93
2018-12-24T11:37:46.389Z,302.75
2018-12-24T11:38:46.385Z,301.97
2018-12-24T11:39:46.363Z,301.01
2018-12-24T11:40:46.370Z,301.27
2018-12-24T11:41:46.371Z,301.31
2018-12-24T11:42:46.352Z,301.79
2018-12-24T11:43:46.335Z,301.63
2018-12-24T11:44:46.342Z,301.33
2018-12-24T11:45:46.331Z,301.52
2018-12-24T11:46:46.490Z,302.01
2018-12-24T11:47:46.375Z,301.33
2018-12-24T11:48:46.332Z,301.32
2018-12-24T11:49:46.268Z,301.50
2018-12-24T11:50:46.288Z,301.22
2018-12-24T11:51:46.245Z,301.43
2018-12-24T11:52:46.238Z,301.70
2018-12-24T11:53:46.220Z,301.41
2018-12-24T11:54:46.228Z,301.06
2018-12-24T11:55:46.226Z,301.74
2018-12-24T11:56:46.198Z,301.80
2018-12-24T11:57:47.384Z,300.98
2018-12-24T11:58:46.188Z,301.67
2018-12-24T11:59:46.167Z,300.97
2018-12-24T12:00:46.194Z,301.61
2018-12-24T12:01:46.121Z,301.26
2018-12-24T12:02:46.237Z,302.15
2018-12-24T12:03:46.117Z,301.55
2018-12-24T12:04:47.015Z,302.05
2018-12-24T12:05:46.127Z,302.41
2018-12-24T12:06:46.150Z,301.62
2018-12-24T12:07:46.060Z,300.95
2018-12-24T12:08:46.057Z,300.93
2018-12-24T12:09:46.064Z,301.62
2018-12-24T12:10:46.066Z,301.58
2018-12-24T12:11:46.031Z,301.69
2018-12-24T12:12:46.027Z,301.74
2018-12-24T12:13:46.017Z,301.79
2018-12-24T12:14:45.997Z,302.13
2018-12-24T12:15:46.049Z,301.82
2018-12-24T12:16:45.998Z,301.74
2018-12-24T12:17:45.982Z,301.08
2018-12-24T12:18:45.955Z,301.73
2018-12-24T12:19:46.505Z,301.60
2018-12-24T12:20:52.561Z,301.41
2018-12-24T12:21:46.940Z,301.78
2018-12-24T12:22:45.902Z,301.35
2018-12-24T12:23:45.906Z,301.97
2018-12-24T12:24:45.905Z,301.87
2018-12-24T12:25:45.904Z,301.89
2018-12-24T12:26:45.913Z,302.08
2018-12-24T12:27:45.866Z,301.75
2018-12-24T12:28:45.868Z,301.26